EDDF/FRA METAR and TAF weather

Enter ICAO airport designator
Station Type Date Time Source
EDDF METAR 2018/10/21 03:20 UTC NOAA

EDDF 210320Z 08003KT CAVOK 05/04 Q1029 NOSIG


Station Type Date Time Source
EDDF Decoded METAR 2018/10/21 03:20 UTC NOAA

Frankfurt / M-Flughafen, Germany (EDDF) 50-03N 008-36E 113M
Oct 20, 2018 - 11:20 PM EDT / 2018.10.21 0320 UTC
Wind: from the E (080 degrees) at 3 MPH (3 KT):0
Visibility: greater than 7 mile(s):0
Temperature: 41 F (5 C)
Dew Point: 39 F (4 C)
Relative Humidity: 93%
Pressure (altimeter): 30.39 in. Hg (1029 hPa)
ob: EDDF 210320Z 08003KT CAVOK 05/04 Q1029 NOSIG
cycle: 3

Station Type Date Time Source
EDDF TAF 2018/10/20 18:28 UTC NOAA

TAF EDDF 201700Z 2018/2124 02004KT CAVOK


Example: see airport list